Time;durP1;ratioP1;P1;durP2;ratioP2;P2;SDS_P1;SDS_P2;PMS_P1;PMS_P2;Temp;Humidity;BMP_temperature;BMP_pressure;BME280_temperature;BME280_humidity;BME280_pressure;Samples;Min_cycle;Max_cycle;Signal;HPM_P1;HPM_P2
2022/03/07 00:01:25;;;;;;;5.90;4.70;;;;;;;2.64;100.00;99980.19;5052582;28;20025;-69
2022/03/07 00:03:51;;;;;;;5.60;4.38;;;;;;;2.80;100.00;99986.09;5042382;28;20054;-69
2022/03/07 00:06:16;;;;;;;6.30;4.35;;;;;;;2.69;100.00;99966.00;5043726;28;20021;-68
2022/03/07 00:08:42;;;;;;;5.82;4.00;;;;;;;2.73;100.00;99986.94;5044493;28;20035;-70
2022/03/07 00:11:07;;;;;;;5.80;3.83;;;;;;;2.45;100.00;99959.25;5044020;28;20511;-71
2022/03/07 00:13:34;;;;;;;6.72;4.00;;;;;;;2.82;100.00;99969.38;5042232;28;20025;-71
2022/03/07 00:15:59;;;;;;;7.30;4.82;;;;;;;2.74;100.00;99971.03;5043024;28;20092;-70
2022/03/07 00:18:25;;;;;;;6.20;4.47;;;;;;;2.65;100.00;99969.34;5043883;28;20036;-70
2022/03/07 00:20:50;;;;;;;6.57;4.40;;;;;;;2.35;100.00;99932.44;5041492;28;20027;-70
2022/03/07 00:23:15;;;;;;;5.38;4.00;;;;;;;2.73;100.00;99951.78;5048654;28;20032;-63
2022/03/07 00:25:41;;;;;;;7.13;4.13;;;;;;;2.63;100.00;99959.28;5052779;28;20036;-69
2022/03/07 00:28:07;;;;;;;5.35;4.15;;;;;;;2.66;100.00;99935.88;5053151;28;20033;-69
2022/03/07 00:30:33;;;;;;;8.02;4.50;;;;;;;2.51;100.00;99936.69;5051828;28;20025;-70
2022/03/07 00:32:58;;;;;;;7.20;4.47;;;;;;;2.74;100.00;99936.75;5052480;28;20509;-68
2022/03/07 00:35:24;;;;;;;4.93;3.65;;;;;;;2.34;100.00;99883.09;5052684;28;20029;-70
2022/03/07 00:37:49;;;;;;;4.93;3.30;;;;;;;2.78;100.00;99937.56;5052621;28;20108;-70
2022/03/07 00:40:15;;;;;;;4.78;3.10;;;;;;;2.50;100.00;99909.91;5051328;28;20037;-69
2022/03/07 00:42:40;;;;;;;4.13;3.10;;;;;;;3.00;100.00;99929.25;5052713;28;20028;-68
2022/03/07 00:45:07;;;;;;;3.50;2.75;;;;;;;2.71;100.00;99899.09;5052970;28;20021;-70
2022/03/07 00:47:34;;;;;;;4.63;3.13;;;;;;;2.82;100.00;99924.19;5052822;28;20415;-69
2022/03/07 00:49:59;;;;;;;4.28;3.08;;;;;;;2.94;100.00;99937.63;5034629;28;20530;-69
2022/03/07 00:52:25;;;;;;;5.65;3.10;;;;;;;2.62;100.00;99892.38;5052492;28;20112;-70
2022/03/07 00:54:50;;;;;;;5.95;3.20;;;;;;;2.96;100.00;99910.00;5052123;28;20111;-70
2022/03/07 00:57:15;;;;;;;4.70;3.75;;;;;;;2.87;100.00;99895.78;5052817;28;20029;-68
2022/03/07 00:59:41;;;;;;;6.32;4.57;;;;;;;2.62;100.00;99904.09;5052503;28;20052;-69
2022/03/07 01:02:06;;;;;;;7.07;5.40;;;;;;;2.69;100.00;99904.94;5029526;22;20058;-69
2022/03/07 01:04:32;;;;;;;8.73;5.28;;;;;;;2.85;100.00;99911.69;5013302;28;20041;-69
2022/03/07 01:06:57;;;;;;;6.85;5.45;;;;;;;3.13;100.00;99934.28;4664058;28;10000583;-70
2022/03/07 01:09:23;;;;;;;7.47;6.10;;;;;;;2.66;100.00;99903.25;5024354;28;20025;-70
2022/03/07 01:11:48;;;;;;;7.50;6.10;;;;;;;2.71;100.00;99934.25;5032668;28;20474;-70
2022/03/07 01:14:14;;;;;;;8.68;6.30;;;;;;;2.65;100.00;99909.13;5020275;28;20399;-69
2022/03/07 01:16:39;;;;;;;7.25;5.95;;;;;;;2.90;100.00;99938.44;5015022;28;20147;-70
2022/03/07 01:19:05;;;;;;;8.27;6.65;;;;;;;2.97;100.00;99945.16;5032118;28;20098;-70
2022/03/07 01:21:30;;;;;;;8.48;6.65;;;;;;;2.69;100.00;99945.94;5031016;28;20025;-69
2022/03/07 01:23:55;;;;;;;8.60;7.15;;;;;;;2.71;100.00;99948.44;5012689;28;20037;-69
2022/03/07 01:26:21;;;;;;;8.73;6.88;;;;;;;2.85;100.00;99947.66;5012282;28;20026;-68
2022/03/07 01:28:46;;;;;;;8.70;6.93;;;;;;;2.60;100.00;99934.19;5012162;28;20034;-69
2022/03/07 01:31:12;;;;;;;8.32;6.32;;;;;;;2.52;100.00;99915.78;5014555;28;20047;-70
2022/03/07 01:33:37;;;;;;;9.30;7.22;;;;;;;2.92;100.00;99944.31;5032020;28;20052;-70
2022/03/07 01:36:03;;;;;;;9.25;6.90;;;;;;;2.61;100.00;99925.81;5022098;28;20080;-67
2022/03/07 01:38:28;;;;;;;7.70;6.60;;;;;;;2.99;100.00;99943.47;5012265;28;20068;-70
2022/03/07 01:40:54;;;;;;;9.10;7.10;;;;;;;2.67;100.00;99921.66;5012428;28;20030;-70
2022/03/07 01:43:19;;;;;;;8.02;6.80;;;;;;;2.76;100.00;99932.56;5012231;28;20029;-70
2022/03/07 01:45:45;;;;;;;8.98;6.75;;;;;;;2.83;100.00;99943.47;5012164;28;20025;-70
2022/03/07 01:48:10;;;;;;;7.82;6.43;;;;;;;2.72;100.00;99918.34;5012012;28;20115;-70
2022/03/07 01:50:36;;;;;;;9.68;7.07;;;;;;;2.92;100.00;99951.84;5011512;28;20412;-69
2022/03/07 01:53:02;;;;;;;8.55;6.63;;;;;;;2.77;100.00;99924.22;5012418;28;20030;-69
2022/03/07 01:55:28;;;;;;;7.38;5.82;;;;;;;2.82;100.00;99946.78;5021674;28;20030;-69
2022/03/07 01:57:53;;;;;;;7.15;5.75;;;;;;;2.91;100.00;99922.53;5011834;28;20033;-70
2022/03/07 02:00:22;;;;;;;7.22;5.70;;;;;;;2.79;100.00;99926.72;5011940;28;20033;-70
2022/03/07 02:02:49;;;;;;;8.38;6.03;;;;;;;3.01;100.00;99959.38;5011961;28;20054;-70
2022/03/07 02:05:15;;;;;;;6.22;5.30;;;;;;;3.21;100.00;99954.41;5011266;28;20108;-70
2022/03/07 02:07:40;;;;;;;10.55;7.90;;;;;;;3.10;100.00;99943.50;5011797;28;20108;-69
2022/03/07 02:10:08;;;;;;;12.35;9.80;;;;;;;3.12;100.00;99964.44;5011439;28;20053;-69
2022/03/07 02:12:33;;;;;;;13.88;9.80;;;;;;;3.06;100.00;99944.34;5011027;28;20030;-70
2022/03/07 02:14:59;;;;;;;12.27;9.35;;;;;;;2.81;100.00;99922.53;5011462;28;20420;-69
2022/03/07 02:17:24;;;;;;;15.10;10.77;;;;;;;2.99;100.00;99933.44;5011350;28;20030;-70
2022/03/07 02:19:50;;;;;;;13.27;9.82;;;;;;;3.29;100.00;99978.69;5010985;28;20504;-70
2022/03/07 02:22:16;;;;;;;16.75;11.77;;;;;;;2.87;100.00;99961.06;5011554;28;20411;-69
2022/03/07 02:24:42;;;;;;;15.27;10.93;;;;;;;2.83;100.00;99973.56;5011573;28;20026;-69
2022/03/07 02:27:09;;;;;;;17.10;10.88;;;;;;;2.56;100.00;99944.22;5011084;28;20030;-69
2022/03/07 02:29:35;;;;;;;14.80;11.07;;;;;;;2.54;100.00;99935.84;5011377;28;20096;-70
2022/03/07 02:32:02;;;;;;;15.70;11.57;;;;;;;2.55;100.00;99958.44;4993380;28;20030;-69
2022/03/07 02:34:28;;;;;;;14.93;10.82;;;;;;;2.40;100.00;99944.97;5010849;28;20026;-69
2022/03/07 02:36:53;;;;;;;15.95;10.52;;;;;;;2.62;100.00;99966.81;4993508;28;20037;-70
2022/03/07 02:39:19;;;;;;;15.70;11.77;;;;;;;2.79;100.00;99969.38;5011091;28;20703;-68
2022/03/07 02:41:46;;;;;;;17.65;12.38;;;;;;;2.59;100.00;99951.75;5011177;28;20026;-70
2022/03/07 02:44:11;;;;;;;17.52;12.23;;;;;;;2.57;100.00;99945.91;5010967;28;20030;-69
2022/03/07 02:46:37;;;;;;;17.00;11.35;;;;;;;2.66;100.00;99978.53;5010889;28;20117;-68
2022/03/07 02:49:04;;;;;;;15.50;10.98;;;;;;;2.61;100.00;99947.59;4992528;28;20404;-69
2022/03/07 02:51:30;;;;;;;16.55;11.38;;;;;;;2.45;100.00;99943.34;5010328;28;20033;-70
2022/03/07 02:53:56;;;;;;;15.75;10.98;;;;;;;2.93;100.00;99982.81;5011318;28;20084;-70
2022/03/07 02:56:21;;;;;;;14.80;11.52;;;;;;;2.58;100.00;99955.94;5010996;28;20053;-70
2022/03/07 02:58:47;;;;;;;15.77;10.73;;;;;;;2.64;100.00;99980.19;5010740;28;20025;-69
2022/03/07 03:01:12;;;;;;;16.67;11.32;;;;;;;2.27;100.00;99956.66;5010659;28;20026;-70
2022/03/07 03:03:38;;;;;;;20.58;11.90;;;;;;;2.63;100.00;99959.28;5010983;28;20049;-69
2022/03/07 03:06:03;;;;;;;13.40;10.02;;;;;;;2.74;100.00;99989.44;5015122;28;20029;-69
2022/03/07 03:08:29;;;;;;;12.90;10.68;;;;;;;2.70;100.00;99977.72;5014858;28;20037;-70
2022/03/07 03:10:57;;;;;;;12.90;10.43;;;;;;;2.64;100.00;99986.06;5015256;28;20483;-70
2022/03/07 03:13:23;;;;;;;14.93;11.38;;;;;;;2.32;100.00;99949.97;5014775;28;20022;-69
2022/03/07 03:15:50;;;;;;;15.00;10.88;;;;;;;2.57;100.00;99961.78;5014518;28;20439;-69
2022/03/07 03:18:16;;;;;;;17.75;13.30;;;;;;;2.36;100.00;99935.75;5014367;28;20519;-70
2022/03/07 03:20:46;;;;;;;13.80;11.18;;;;;;;2.34;100.00;99945.78;5019618;28;20025;-70
2022/03/07 03:23:12;;;;;;;14.65;11.32;;;;;;;2.67;100.00;99945.09;5017403;28;20089;-69
2022/03/07 03:25:37;;;;;;;17.38;13.57;;;;;;;2.62;100.00;99985.22;5034459;28;20029;-69
2022/03/07 03:28:03;;;;;;;15.38;12.20;;;;;;;2.67;100.00;99978.53;5033364;28;20430;-68
2022/03/07 03:30:29;;;;;;;17.58;12.95;;;;;;;2.56;100.00;99961.75;5014219;28;20112;-68
2022/03/07 03:32:54;;;;;;;18.45;13.77;;;;;;;2.57;100.00;99944.22;5014279;28;20117;-69
2022/03/07 03:35:20;;;;;;;17.02;13.45;;;;;;;2.97;100.00;99976.97;5014343;28;20038;-69
2022/03/07 03:37:45;;;;;;;18.90;14.60;;;;;;;2.62;100.00;99942.56;5013534;28;20037;-69
2022/03/07 03:40:12;;;;;;;19.65;15.13;;;;;;;3.12;100.00;99966.94;5026016;28;20530;-69
2022/03/07 03:42:39;;;;;;;25.95;17.98;;;;;;;2.88;100.00;99947.66;5033785;28;20025;-69
2022/03/07 03:45:08;;;;;;;37.05;24.08;;;;;;;2.86;100.00;99966.88;5023755;28;20029;-68
2022/03/07 03:47:40;;;;;;;49.53;32.33;;;;;;;2.83;100.00;99979.44;5013995;28;20037;-69
2022/03/07 03:50:09;;;;;;;42.30;30.50;;;;;;;2.47;100.00;99934.16;5024949;28;20045;-69
2022/03/07 03:52:35;;;;;;;40.83;31.10;;;;;;;2.75;100.00;99970.22;4996889;28;20415;-69
2022/03/07 03:55:04;;;;;;;46.20;35.20;;;;;;;2.66;100.00;99971.00;4994322;28;20030;-67
2022/03/07 03:57:29;;;;;;;39.92;30.35;;;;;;;2.51;100.00;99966.78;4994061;28;20150;-68
2022/03/07 03:59:55;;;;;;;30.48;24.77;;;;;;;2.67;100.00;99977.72;4993945;28;20121;-70
2022/03/07 04:02:21;;;;;;;24.90;20.17;;;;;;;2.54;100.00;99930.81;4992882;28;20054;-69
2022/03/07 04:04:46;;;;;;;29.80;22.73;;;;;;;2.46;100.00;99937.47;4993972;28;20034;-69
2022/03/07 04:07:12;;;;;;;22.92;18.52;;;;;;;2.85;100.00;99945.16;4993685;28;20038;-69
2022/03/07 04:09:37;;;;;;;20.02;16.73;;;;;;;2.97;100.00;99977.78;4993876;28;20035;-69
2022/03/07 04:12:03;;;;;;;32.25;22.08;;;;;;;2.70;100.00;99972.69;4994133;28;20543;-69
2022/03/07 04:14:29;;;;;;;48.78;29.75;;;;;;;2.55;100.00;99937.53;4993342;28;20037;-68
2022/03/07 04:16:55;;;;;;;48.28;32.95;;;;;;;2.75;100.00;99945.97;4993818;28;20030;-69
2022/03/07 04:19:20;;;;;;;39.80;27.25;;;;;;;2.77;100.00;99921.72;4992649;28;20031;-69
2022/03/07 04:21:46;;;;;;;32.03;22.92;;;;;;;2.81;100.00;99945.97;4993768;28;20037;-69
2022/03/07 04:24:13;;;;;;;27.90;20.85;;;;;;;2.86;100.00;99948.47;4993687;28;20081;-70
2022/03/07 04:26:39;;;;;;;28.88;21.25;;;;;;;2.72;100.00;99930.88;4993955;28;20036;-70
2022/03/07 04:29:07;;;;;;;34.70;24.52;;;;;;;2.45;100.00;99910.75;4993527;28;20085;-70
2022/03/07 04:31:37;;;;;;;44.50;30.73;;;;;;;2.79;100.00;99972.75;4993938;28;20062;-66
2022/03/07 04:34:04;;;;;;;45.10;31.40;;;;;;;2.73;100.00;99929.22;5026525;28;20052;-69
2022/03/07 04:36:30;;;;;;;43.22;30.08;;;;;;;2.61;100.00;99945.88;5030110;28;20044;-69
2022/03/07 04:38:56;;;;;;;40.78;28.88;;;;;;;2.86;100.00;99969.41;5032973;28;20029;-70
2022/03/07 04:41:21;;;;;;;43.22;31.83;;;;;;;2.81;100.00;99953.50;5032827;28;20458;-69
2022/03/07 04:43:47;;;;;;;46.15;32.58;;;;;;;2.92;100.00;99948.50;5011074;28;20551;-70
2022/03/07 04:46:12;;;;;;;57.13;38.92;;;;;;;2.87;100.00;99940.13;4993501;28;20113;-70
2022/03/07 04:48:38;;;;;;;37.05;29.10;;;;;;;2.83;100.00;99964.38;5023150;28;20049;-68
2022/03/07 04:51:04;;;;;;;34.88;28.50;;;;;;;2.85;100.00;99944.31;5032663;28;20026;-69
2022/03/07 04:53:30;;;;;;;29.63;23.20;;;;;;;3.01;100.00;99971.94;5017073;28;20026;-73
2022/03/07 04:55:56;;;;;;;26.33;17.65;;;;;;;2.93;100.00;99940.94;4980598;28;20561;-71
2022/03/07 04:58:22;;;;;;;24.05;17.83;;;;;;;2.99;100.00;99963.56;4997008;28;20037;-71
2022/03/07 05:00:47;;;;;;;22.27;17.27;;;;;;;3.08;100.00;99953.56;5013144;28;20033;-69
2022/03/07 05:03:13;;;;;;;19.67;15.73;;;;;;;3.10;100.00;99973.63;5012352;28;20148;-70
2022/03/07 05:05:38;;;;;;;21.25;16.48;;;;;;;3.31;100.00;99966.13;5012810;28;20030;-70
2022/03/07 05:08:04;;;;;;;44.90;33.17;;;;;;;2.90;100.00;99945.97;5012916;28;20102;-72
2022/03/07 05:10:30;;;;;;;60.70;44.78;;;;;;;2.83;100.00;99966.91;5011743;28;20083;-69
2022/03/07 05:12:55;;;;;;;51.60;39.85;;;;;;;2.77;100.00;99963.53;5011937;28;20032;-71
2022/03/07 05:15:21;;;;;;;43.20;31.50;;;;;;;2.40;100.00;99924.91;5012715;28;20159;-73
2022/03/07 05:17:50;;;;;;;44.55;34.88;;;;;;;2.78;100.00;99967.69;5013007;28;20034;-73
2022/03/07 05:20:17;;;;;;;53.72;38.15;;;;;;;2.66;100.00;99930.84;4995428;28;20061;-72
2022/03/07 05:22:43;;;;;;;59.63;36.25;;;;;;;2.30;100.00;99908.16;5013161;28;20069;-76
2022/03/07 05:25:12;;;;;;;44.60;30.85;;;;;;;2.92;100.00;99964.41;5012822;28;20041;-68
2022/03/07 05:27:38;;;;;;;50.45;33.38;;;;;;;3.08;100.00;99946.03;5011904;28;20034;-71
2022/03/07 05:30:05;;;;;;;31.10;23.42;;;;;;;2.75;100.00;99935.91;5012572;28;20032;-70
2022/03/07 05:32:31;;;;;;;27.48;20.38;;;;;;;3.07;100.00;99941.81;5010118;28;20069;-71
2022/03/07 05:34:58;;;;;;;31.17;20.10;;;;;;;3.18;100.00;99972.81;5012546;28;20077;-71
2022/03/07 05:37:23;;;;;;;23.52;17.40;;;;;;;3.19;100.00;99968.66;5011120;28;20092;-72
2022/03/07 05:39:48;;;;;;;24.88;17.98;;;;;;;3.20;100.00;99950.22;5012223;28;20042;-67
2022/03/07 05:42:14;;;;;;;22.25;15.25;;;;;;;3.28;100.00;99978.69;5008601;28;20403;-72
2022/03/07 05:44:39;;;;;;;21.98;15.70;;;;;;;3.30;100.00;99977.84;4993022;28;20026;-70
2022/03/07 05:47:05;;;;;;;18.63;13.05;;;;;;;4.99;100.00;99903.59;5025102;28;20479;-64
2022/03/07 05:49:30;;;;;;;20.98;14.77;;;;;;;4.29;100.00;99964.34;5014936;28;20032;-71
2022/03/07 05:51:56;;;;;;;16.88;13.15;;;;;;;3.39;100.00;99972.00;4993676;28;20524;-69
2022/03/07 05:54:21;;;;;;;13.40;9.65;;;;;;;3.07;100.00;99953.56;5010335;28;20467;-70
2022/03/07 05:56:47;;;;;;;12.70;10.02;;;;;;;3.36;100.00;99977.88;5010817;28;20057;-69
2022/03/07 05:59:12;;;;;;;14.93;11.23;;;;;;;3.10;100.00;99953.53;5010822;28;20435;-68
2022/03/07 06:01:38;;;;;;;12.48;8.80;;;;;;;3.21;100.00;99992.09;5010791;28;20484;-70
2022/03/07 06:04:03;;;;;;;15.35;10.13;;;;;;;3.13;100.00;99961.91;5010174;28;20419;-70
2022/03/07 06:06:29;;;;;;;14.32;10.48;;;;;;;3.33;100.00;99964.44;5011098;28;20095;-70
2022/03/07 06:08:54;;;;;;;16.52;12.55;;;;;;;3.84;100.00;99998.81;5011668;28;20120;-69
2022/03/07 06:11:20;;;;;;;20.35;16.13;;;;;;;3.44;100.00;99966.16;5010925;28;20025;-68
2022/03/07 06:13:46;;;;;;;20.27;14.00;;;;;;;3.68;100.00;99972.00;5010795;28;20337;-68
2022/03/07 06:16:12;;;;;;;12.55;8.52;;;;;;;4.04;100.00;99992.91;5010833;28;20040;-68
2022/03/07 06:18:38;;;;;;;10.05;7.72;;;;;;;3.55;100.00;99951.06;4994005;28;20021;-70
2022/03/07 06:21:03;;;;;;;12.15;10.02;;;;;;;4.36;100.00;99990.31;5030582;28;20172;-70
2022/03/07 06:23:29;;;;;;;19.35;13.63;;;;;;;3.77;100.00;99946.84;5030503;28;20053;-70
2022/03/07 06:25:54;;;;;;;23.90;18.88;;;;;;;4.04;100.00;99997.13;5021243;28;20076;-70
2022/03/07 06:28:19;;;;;;;15.23;12.10;;;;;;;4.77;100.00;100005.28;5015009;28;20103;-69
2022/03/07 06:30:49;;;;;;;8.40;6.82;;;;;;;4.86;100.00;99973.34;5011380;28;20112;-69
2022/03/07 06:33:15;;;;;;;11.68;8.52;;;;;;;4.71;100.00;100015.38;5011371;28;20559;-69
2022/03/07 06:35:41;;;;;;;11.57;9.55;;;;;;;4.86;100.00;99975.00;5011235;28;20030;-65
2022/03/07 06:38:06;;;;;;;12.38;10.40;;;;;;;4.74;100.00;99978.44;5011358;28;20032;-67
2022/03/07 06:40:32;;;;;;;11.70;8.65;;;;;;;4.87;100.00;100012.75;5011205;28;20041;-70
2022/03/07 06:42:57;;;;;;;9.75;7.35;;;;;;;4.78;100.00;100009.47;5011469;28;20030;-70
2022/03/07 06:45:23;;;;;;;9.00;7.40;;;;;;;4.71;100.00;99980.13;4991993;28;20038;-70
2022/03/07 06:47:49;;;;;;;8.55;6.70;;;;;;;5.13;100.00;100000.06;5000485;28;20121;-71
2022/03/07 06:50:16;;;;;;;8.43;7.05;;;;;;;4.77;100.00;99982.63;5011074;28;20028;-70
2022/03/07 06:52:42;;;;;;;11.60;7.30;;;;;;;5.32;100.00;100004.13;5011595;28;20026;-69
2022/03/07 06:55:08;;;;;;;9.23;7.20;;;;;;;5.02;100.00;99982.47;5022819;28;20101;-67
2022/03/07 06:57:34;;;;;;;11.30;7.45;;;;;;;5.38;100.00;99995.69;5009177;28;20510;-69
2022/03/07 06:59:59;;;;;;;11.23;9.57;;;;;;;5.52;100.00;100002.31;5008715;28;20026;-69
2022/03/07 07:02:25;;;;;;;8.68;7.72;;;;;;;5.51;100.00;100008.19;5003600;28;20474;-70
2022/03/07 07:04:50;;;;;;;6.63;5.13;;;;;;;4.86;100.00;99990.97;4991482;28;20034;-70
2022/03/07 07:07:16;;;;;;;6.88;5.38;;;;;;;5.27;100.00;99985.66;4991294;28;20118;-69
2022/03/07 07:09:42;;;;;;;6.70;5.28;;;;;;;4.68;100.00;99986.00;5002926;28;20506;-71
2022/03/07 07:12:09;;;;;;;6.07;4.82;;;;;;;4.97;100.00;99980.84;5030877;28;20514;-71
2022/03/07 07:14:34;;;;;;;7.55;5.43;;;;;;;5.27;100.00;99984.00;5031007;28;20095;-72
2022/03/07 07:17:00;;;;;;;6.22;5.00;;;;;;;5.29;100.00;100014.22;5010546;28;20033;-71
2022/03/07 07:19:26;;;;;;;7.63;5.90;;;;;;;5.32;100.00;99998.25;5010058;28;20030;-70
2022/03/07 07:21:51;;;;;;;8.32;6.15;;;;;;;4.81;100.00;100007.78;5009145;28;20443;-70
2022/03/07 07:24:17;;;;;;;7.68;6.47;;;;;;;5.42;100.00;100002.38;5010143;28;20435;-68
2022/03/07 07:26:42;;;;;;;10.95;8.43;;;;;;;4.61;100.00;99973.47;5010767;28;20026;-68
2022/03/07 07:29:07;;;;;;;19.65;13.85;;;;;;;5.16;100.00;99989.97;5010560;28;20166;-69
2022/03/07 07:31:33;;;;;;;11.15;8.23;;;;;;;5.41;100.00;99978.03;5010602;28;20053;-66
2022/03/07 07:33:58;;;;;;;11.50;8.55;;;;;;;4.97;100.00;99958.97;5020845;28;20051;-71
2022/03/07 07:36:24;;;;;;;11.98;9.00;;;;;;;5.41;100.00;99981.38;5011187;28;20042;-71
2022/03/07 07:38:49;;;;;;;11.30;7.40;;;;;;;5.53;100.00;100013.22;4990421;28;20108;-71
2022/03/07 07:41:15;;;;;;;10.40;8.30;;;;;;;5.83;100.00;99987.75;4991283;28;20416;-71
2022/03/07 07:43:40;;;;;;;9.40;8.07;;;;;;;5.39;100.00;99999.91;4991674;28;20468;-71
2022/03/07 07:46:06;;;;;;;12.57;8.57;;;;;;;5.33;100.00;99984.81;4990110;28;20484;-71
2022/03/07 07:48:31;;;;;;;13.43;11.20;;;;;;;5.74;100.00;100020.63;4991551;28;20035;-71
2022/03/07 07:50:57;;;;;;;25.83;18.60;;;;;;;5.57;100.00;99972.00;4993694;28;20034;-71
2022/03/07 07:53:22;;;;;;;18.15;14.57;;;;;;;5.50;100.00;100004.00;4994696;28;20038;-72
2022/03/07 07:55:48;;;;;;;21.30;18.13;;;;;;;5.35;100.00;100000.75;4994607;28;20041;-71
2022/03/07 07:58:13;;;;;;;19.83;16.98;;;;;;;5.73;100.00;99992.06;4994427;28;20066;-71
2022/03/07 08:00:39;;;;;;;27.33;21.50;;;;;;;5.88;100.00;100023.91;4994800;28;20118;-71
2022/03/07 08:03:05;;;;;;;26.67;22.27;;;;;;;5.55;100.00;100021.59;4994218;28;20058;-71
2022/03/07 08:05:30;;;;;;;31.20;27.02;;;;;;;5.70;100.00;100017.31;4994110;28;20504;-71
2022/03/07 08:07:56;;;;;;;42.72;31.15;;;;;;;4.84;100.00;99991.81;4993654;28;20035;-71
2022/03/07 08:10:22;;;;;;;18.90;14.80;;;;;;;4.80;100.00;100017.84;4992497;28;20037;-70
2022/03/07 08:12:47;;;;;;;25.73;20.83;;;;;;;5.41;100.00;100029.25;4994684;28;20481;-71
2022/03/07 08:15:13;;;;;;;23.42;19.77;;;;;;;5.04;100.00;99995.06;4994467;28;20065;-69
2022/03/07 08:17:43;;;;;;;17.90;15.63;;;;;;;5.24;100.00;99989.06;4994458;28;20018;-70
2022/03/07 08:20:09;;;;;;;16.67;12.73;;;;;;;5.32;100.00;100036.06;4994470;28;20077;-71
2022/03/07 08:22:35;;;;;;;14.05;11.63;;;;;;;5.12;100.00;99996.69;4993831;28;20029;-69
2022/03/07 08:25:00;;;;;;;14.45;12.77;;;;;;;5.33;100.00;100027.66;4994421;28;20030;-70
2022/03/07 08:27:26;;;;;;;35.15;19.42;;;;;;;5.28;100.00;99997.44;4994576;28;20058;-71
2022/03/07 08:29:51;;;;;;;10.88;8.98;;;;;;;4.71;100.00;100002.78;4994458;28;20038;-69
2022/03/07 08:32:16;;;;;;;10.75;8.07;;;;;;;5.20;100.00;100012.63;4994265;28;20062;-70
2022/03/07 08:34:42;;;;;;;9.05;7.95;;;;;;;5.19;100.00;99993.28;4994057;28;20411;-69
2022/03/07 08:37:07;;;;;;;9.45;8.25;;;;;;;5.03;100.00;99975.78;4993494;28;20097;-71
2022/03/07 08:39:33;;;;;;;9.23;7.72;;;;;;;4.95;100.00;100031.19;4994262;28;20153;-71
2022/03/07 08:41:58;;;;;;;9.65;8.70;;;;;;;4.91;100.00;100009.38;4994512;28;20034;-71
2022/03/07 08:44:23;;;;;;;14.10;11.73;;;;;;;4.88;100.00;100009.41;4993865;28;20030;-71
2022/03/07 08:46:49;;;;;;;14.90;13.05;;;;;;;4.80;100.00;99993.50;4994226;28;20032;-71
2022/03/07 08:49:14;;;;;;;16.20;14.50;;;;;;;5.12;100.00;100019.38;4993703;28;20030;-70
2022/03/07 08:51:43;;;;;;;15.70;13.65;;;;;;;4.65;100.00;100010.38;4976060;28;20121;-69
2022/03/07 08:54:08;;;;;;;18.70;14.35;;;;;;;4.80;100.00;99967.47;4993830;28;20030;-70
2022/03/07 08:56:34;;;;;;;12.15;9.45;;;;;;;4.46;100.00;99991.97;4993633;28;20097;-71
2022/03/07 08:59:00;;;;;;;10.85;9.57;;;;;;;4.80;100.00;99980.91;4993614;28;20408;-70
2022/03/07 09:01:25;;;;;;;13.25;10.60;;;;;;;4.82;100.00;100013.63;4992453;28;20026;-71
2022/03/07 09:03:50;;;;;;;15.07;10.63;;;;;;;4.95;100.00;100012.75;4993598;28;20148;-70
2022/03/07 09:06:16;;;;;;;18.20;13.95;;;;;;;4.71;100.00;99985.16;4993085;28;20081;-70
2022/03/07 09:08:41;;;;;;;17.67;12.63;;;;;;;5.15;100.00;100014.31;4993780;28;20386;-70
2022/03/07 09:11:07;;;;;;;10.00;7.85;;;;;;;4.68;100.00;99995.22;4993447;28;20041;-71
2022/03/07 09:13:32;;;;;;;11.75;8.75;;;;;;;5.31;100.00;100006.66;4993356;28;20026;-70
2022/03/07 09:15:58;;;;;;;15.77;9.88;;;;;;;5.10;100.00;100003.44;4993367;28;20032;-71
2022/03/07 09:18:25;;;;;;;14.63;10.18;;;;;;;5.00;100.00;99988.38;4993221;28;20041;-70
2022/03/07 09:20:51;;;;;;;24.23;17.20;;;;;;;5.06;100.00;99963.13;4992917;28;20034;-70
2022/03/07 09:23:16;;;;;;;11.27;8.48;;;;;;;4.89;100.00;99965.75;4993323;28;20034;-71
2022/03/07 09:25:42;;;;;;;17.75;12.20;;;;;;;5.25;100.00;100015.06;4993534;28;20038;-71
2022/03/07 09:28:07;;;;;;;21.42;13.20;;;;;;;5.47;100.00;99990.59;4993260;28;20117;-72
2022/03/07 09:30:33;;;;;;;9.77;7.50;;;;;;;5.45;100.00;100020.03;4993469;28;20516;-71
2022/03/07 09:33:03;;;;;;;10.27;8.05;;;;;;;5.74;100.00;100021.47;4992986;28;20428;-71
2022/03/07 09:35:32;;;;;;;23.60;13.80;;;;;;;5.60;100.00;100017.38;4992580;28;20503;-71
2022/03/07 09:37:58;;;;;;;142.70;59.22;;;;;;;5.52;100.00;100011.56;4992948;28;20052;-69
2022/03/07 09:40:24;;;;;;;47.58;23.63;;;;;;;5.41;100.00;100028.44;4993081;28;20398;-65
2022/03/07 09:42:51;;;;;;;50.28;23.83;;;;;;;5.66;100.00;100018.19;4992956;28;20089;-71
2022/03/07 09:45:17;;;;;;;11.50;8.43;;;;;;;5.47;100.00;100026.69;4992644;28;20109;-69
2022/03/07 09:47:44;;;;;;;82.35;28.75;;;;;;;5.95;100.00;100023.00;4992578;28;20084;-70
2022/03/07 09:50:11;;;;;;;45.90;20.83;;;;;;;5.66;100.00;99998.00;4992121;28;20034;-70
2022/03/07 09:52:37;;;;;;;15.95;11.93;;;;;;;5.95;100.00;100030.56;4992543;28;20093;-70
2022/03/07 09:55:03;;;;;;;15.27;10.80;;;;;;;5.67;100.00;100024.03;4992482;28;20033;-69
2022/03/07 09:57:29;;;;;;;11.02;8.73;;;;;;;5.90;100.00;100009.59;4991041;28;20034;-69
2022/03/07 09:59:56;;;;;;;73.70;28.40;;;;;;;5.72;100.00;100012.25;4992404;28;20073;-70
2022/03/07 10:02:24;;;;;;;83.97;30.25;;;;;;;5.66;100.00;100007.25;4992169;28;20517;-70
2022/03/07 10:04:50;;;;;;;31.13;16.67;;;;;;;5.80;100.00;100031.50;4991853;28;20467;-70
2022/03/07 10:07:16;;;;;;;12.63;9.20;;;;;;;5.36;100.00;99998.22;4992345;28;20030;-71
2022/03/07 10:09:42;;;;;;;100.38;35.55;;;;;;;6.23;100.00;100034.53;4992184;28;20026;-71
2022/03/07 10:12:08;;;;;;;35.88;18.15;;;;;;;5.94;100.00;100016.31;4992312;28;20031;-71
2022/03/07 10:14:47;;;;;;;84.03;31.33;;;;;;;5.69;100.00;99987.88;4991859;28;20030;-70
2022/03/07 10:17:19;;;;;;;100.20;37.50;;;;;;;5.87;100.00;100042.41;4991860;28;20049;-70
2022/03/07 10:19:45;;;;;;;;;;;;;;;6.08;100.00;100037.19;4992328;28;20054;-69
2022/03/07 10:22:19;;;;;;;23.40;14.38;;;;;;;6.10;100.00;100015.31;4990616;28;20357;-70
2022/03/07 10:24:45;;;;;;;107.18;39.95;;;;;;;6.36;100.00;100028.50;4992230;28;20034;-71
2022/03/07 10:27:23;;;;;;;16.85;10.50;;;;;;;5.93;100.00;100023.03;4992027;28;20026;-71
2022/03/07 10:29:48;;;;;;;13.43;10.68;;;;;;;6.09;100.00;100004.38;4991770;28;20026;-70
2022/03/07 10:32:18;;;;;;;21.45;12.48;;;;;;;6.07;100.00;100000.19;4992320;28;20045;-71
2022/03/07 10:34:44;;;;;;;43.05;18.67;;;;;;;6.36;100.00;100005.75;4992224;28;20037;-72
2022/03/07 10:37:09;;;;;;;25.45;13.55;;;;;;;6.41;100.00;100015.81;4992034;28;20027;-72
2022/03/07 10:39:35;;;;;;;16.02;11.38;;;;;;;6.22;100.00;100012.63;4992181;28;20027;-71
2022/03/07 10:42:00;;;;;;;18.42;12.65;;;;;;;6.49;100.00;100014.91;4992108;28;20082;-71
2022/03/07 10:44:34;;;;;;;74.57;30.65;;;;;;;7.52;100.00;100001.72;4974439;28;20030;-71
2022/03/07 10:47:07;;;;;;;9.30;6.32;;;;;;;7.36;100.00;100001.97;4992315;28;20030;-70
2022/03/07 10:49:33;;;;;;;71.70;34.30;;;;;;;7.86;100.00;99995.25;4992024;28;20034;-71
2022/03/07 10:52:02;;;;;;;11.98;7.72;;;;;;;7.65;100.00;99999.81;4991161;28;20034;-71
2022/03/07 10:54:27;;;;;;;51.30;22.52;;;;;;;7.55;100.00;99978.06;4992141;28;20045;-71
2022/03/07 10:56:54;;;;;;;101.45;45.00;;;;;;;9.59;100.00;99992.56;4990683;28;20034;-72
2022/03/07 10:59:28;;;;;;;30.50;16.35;;;;;;;8.93;100.00;99959.44;4992216;28;20042;-72
2022/03/07 11:02:09;;;;;;;9.52;6.38;;;;;;;7.81;100.00;99966.66;4991757;28;20076;-71
2022/03/07 11:04:37;;;;;;;5.22;4.35;;;;;;;8.52;100.00;99952.69;4991742;28;20450;-73
2022/03/07 11:07:03;;;;;;;10.25;6.35;;;;;;;8.02;100.00;99952.81;4991679;28;20469;-71
2022/03/07 11:09:28;;;;;;;39.42;19.75;;;;;;;8.21;100.00;99979.44;4992019;28;20118;-72
2022/03/07 11:11:54;;;;;;;20.67;11.75;;;;;;;8.49;100.00;99946.88;4991725;28;20122;-71
2022/03/07 11:14:20;;;;;;;55.53;21.08;;;;;;;9.89;100.00;99961.38;4991904;28;20037;-72
2022/03/07 11:16:47;;;;;;;9.68;5.28;;;;;;;9.65;100.00;99968.78;4992178;28;20027;-72